sensor_id;sensor_type;location;lat;lon;timestamp;P1;durP1;ratioP1;P2;durP2;ratioP2
41897;SDS011;27576;53.366;-1.498;2023-07-13T00:01:39;5.15;;;2.13;;
41897;SDS011;27576;53.366;-1.498;2023-07-13T00:04:04;9.63;;;2.50;;
41897;SDS011;27576;53.366;-1.498;2023-07-13T00:06:30;6.47;;;2.15;;
41897;SDS011;27576;53.366;-1.498;2023-07-13T00:08:57;3.40;;;2.20;;
41897;SDS011;27576;53.366;-1.498;2023-07-13T00:11:23;4.72;;;2.55;;
41897;SDS011;27576;53.366;-1.498;2023-07-13T00:13:49;5.85;;;2.33;;
41897;SDS011;27576;53.366;-1.498;2023-07-13T00:16:16;8.68;;;2.65;;
41897;SDS011;27576;53.366;-1.498;2023-07-13T00:18:41;6.68;;;2.42;;
41897;SDS011;27576;53.366;-1.498;2023-07-13T00:21:07;8.80;;;3.15;;
41897;SDS011;27576;53.366;-1.498;2023-07-13T00:23:33;5.07;;;2.20;;
41897;SDS011;27576;53.366;-1.498;2023-07-13T00:26:03;5.95;;;2.33;;
41897;SDS011;27576;53.366;-1.498;2023-07-13T00:28:30;6.00;;;2.22;;
41897;SDS011;27576;53.366;-1.498;2023-07-13T00:30:57;5.25;;;2.58;;
41897;SDS011;27576;53.366;-1.498;2023-07-13T00:33:22;5.32;;;1.92;;
41897;SDS011;27576;53.366;-1.498;2023-07-13T00:35:48;5.63;;;2.28;;
41897;SDS011;27576;53.366;-1.498;2023-07-13T00:38:14;5.53;;;2.47;;
41897;SDS011;27576;53.366;-1.498;2023-07-13T00:40:40;6.65;;;2.20;;
41897;SDS011;27576;53.366;-1.498;2023-07-13T00:43:10;6.18;;;2.58;;
41897;SDS011;27576;53.366;-1.498;2023-07-13T00:48:12;9.15;;;3.15;;
41897;SDS011;27576;53.366;-1.498;2023-07-13T00:50:42;6.90;;;2.17;;
41897;SDS011;27576;53.366;-1.498;2023-07-13T00:53:09;7.85;;;3.15;;
41897;SDS011;27576;53.366;-1.498;2023-07-13T00:55:36;6.40;;;2.63;;
41897;SDS011;27576;53.366;-1.498;2023-07-13T00:58:03;8.18;;;3.33;;
41897;SDS011;27576;53.366;-1.498;2023-07-13T01:00:31;8.27;;;2.90;;
41897;SDS011;27576;53.366;-1.498;2023-07-13T01:03:00;5.90;;;2.85;;
41897;SDS011;27576;53.366;-1.498;2023-07-13T01:05:29;8.48;;;3.10;;
41897;SDS011;27576;53.366;-1.498;2023-07-13T01:07:57;7.32;;;3.15;;
41897;SDS011;27576;53.366;-1.498;2023-07-13T01:10:25;5.80;;;3.03;;
41897;SDS011;27576;53.366;-1.498;2023-07-13T01:12:50;8.25;;;3.65;;
41897;SDS011;27576;53.366;-1.498;2023-07-13T01:18:24;6.32;;;2.88;;
41897;SDS011;27576;53.366;-1.498;2023-07-13T01:20:55;3.20;;;2.55;;
41897;SDS011;27576;53.366;-1.498;2023-07-13T01:23:25;4.68;;;2.50;;
41897;SDS011;27576;53.366;-1.498;2023-07-13T01:25:51;9.32;;;3.30;;
41897;SDS011;27576;53.366;-1.498;2023-07-13T01:28:17;3.75;;;2.30;;
41897;SDS011;27576;53.366;-1.498;2023-07-13T01:30:46;6.88;;;2.85;;
41897;SDS011;27576;53.366;-1.498;2023-07-13T01:33:12;5.55;;;2.40;;
41897;SDS011;27576;53.366;-1.498;2023-07-13T01:35:42;8.98;;;2.60;;
41897;SDS011;27576;53.366;-1.498;2023-07-13T01:38:08;4.90;;;2.40;;
41897;SDS011;27576;53.366;-1.498;2023-07-13T01:40:35;2.85;;;2.00;;
41897;SDS011;27576;53.366;-1.498;2023-07-13T01:43:01;3.22;;;1.75;;
41897;SDS011;27576;53.366;-1.498;2023-07-13T01:45:27;3.05;;;2.10;;
41897;SDS011;27576;53.366;-1.498;2023-07-13T01:47:53;4.65;;;2.92;;
41897;SDS011;27576;53.366;-1.498;2023-07-13T01:50:18;7.68;;;3.10;;
41897;SDS011;27576;53.366;-1.498;2023-07-13T01:52:44;4.97;;;2.92;;
41897;SDS011;27576;53.366;-1.498;2023-07-13T01:55:09;2.42;;;2.05;;
41897;SDS011;27576;53.366;-1.498;2023-07-13T01:57:35;4.43;;;3.28;;
41897;SDS011;27576;53.366;-1.498;2023-07-13T02:00:02;4.35;;;3.00;;
41897;SDS011;27576;53.366;-1.498;2023-07-13T02:02:29;7.43;;;3.17;;
41897;SDS011;27576;53.366;-1.498;2023-07-13T02:04:55;7.95;;;3.47;;
41897;SDS011;27576;53.366;-1.498;2023-07-13T02:07:21;10.50;;;4.00;;
41897;SDS011;27576;53.366;-1.498;2023-07-13T02:09:46;8.30;;;2.97;;
41897;SDS011;27576;53.366;-1.498;2023-07-13T02:12:12;4.97;;;2.55;;
41897;SDS011;27576;53.366;-1.498;2023-07-13T02:14:37;4.68;;;3.05;;
41897;SDS011;27576;53.366;-1.498;2023-07-13T02:17:03;5.57;;;2.90;;
41897;SDS011;27576;53.366;-1.498;2023-07-13T02:19:29;7.20;;;3.20;;
41897;SDS011;27576;53.366;-1.498;2023-07-13T02:21:54;5.80;;;3.25;;
41897;SDS011;27576;53.366;-1.498;2023-07-13T02:24:19;9.23;;;3.35;;
41897;SDS011;27576;53.366;-1.498;2023-07-13T02:26:46;5.45;;;3.25;;
41897;SDS011;27576;53.366;-1.498;2023-07-13T02:29:11;8.95;;;4.05;;
41897;SDS011;27576;53.366;-1.498;2023-07-13T02:31:37;7.60;;;4.10;;
41897;SDS011;27576;53.366;-1.498;2023-07-13T02:34:03;10.02;;;3.80;;
41897;SDS011;27576;53.366;-1.498;2023-07-13T02:36:29;9.73;;;4.68;;
41897;SDS011;27576;53.366;-1.498;2023-07-13T02:38:55;6.55;;;3.63;;
41897;SDS011;27576;53.366;-1.498;2023-07-13T02:41:20;7.07;;;3.63;;
41897;SDS011;27576;53.366;-1.498;2023-07-13T02:43:47;9.00;;;4.85;;
41897;SDS011;27576;53.366;-1.498;2023-07-13T02:46:13;8.40;;;4.15;;
41897;SDS011;27576;53.366;-1.498;2023-07-13T02:48:39;7.72;;;4.70;;
41897;SDS011;27576;53.366;-1.498;2023-07-13T02:51:04;12.35;;;5.10;;
41897;SDS011;27576;53.366;-1.498;2023-07-13T02:53:30;8.02;;;5.35;;
41897;SDS011;27576;53.366;-1.498;2023-07-13T02:55:55;9.45;;;5.90;;
41897;SDS011;27576;53.366;-1.498;2023-07-13T02:58:21;7.68;;;5.00;;
41897;SDS011;27576;53.366;-1.498;2023-07-13T03:00:47;10.10;;;4.45;;
41897;SDS011;27576;53.366;-1.498;2023-07-13T03:03:15;12.98;;;5.30;;
41897;SDS011;27576;53.366;-1.498;2023-07-13T03:05:41;7.43;;;4.10;;
41897;SDS011;27576;53.366;-1.498;2023-07-13T03:08:10;9.55;;;5.47;;
41897;SDS011;27576;53.366;-1.498;2023-07-13T03:10:36;12.80;;;4.90;;
41897;SDS011;27576;53.366;-1.498;2023-07-13T03:13:02;9.40;;;5.05;;
41897;SDS011;27576;53.366;-1.498;2023-07-13T03:15:28;9.75;;;5.32;;
41897;SDS011;27576;53.366;-1.498;2023-07-13T03:17:53;8.95;;;4.57;;
41897;SDS011;27576;53.366;-1.498;2023-07-13T03:20:19;9.55;;;5.30;;
41897;SDS011;27576;53.366;-1.498;2023-07-13T03:22:45;9.80;;;4.80;;
41897;SDS011;27576;53.366;-1.498;2023-07-13T03:25:11;9.55;;;4.20;;
41897;SDS011;27576;53.366;-1.498;2023-07-13T03:27:37;7.25;;;5.00;;
41897;SDS011;27576;53.366;-1.498;2023-07-13T03:30:03;5.47;;;3.88;;
41897;SDS011;27576;53.366;-1.498;2023-07-13T03:32:29;6.53;;;3.85;;
41897;SDS011;27576;53.366;-1.498;2023-07-13T03:34:55;7.05;;;4.20;;
41897;SDS011;27576;53.366;-1.498;2023-07-13T03:37:20;4.13;;;3.28;;
41897;SDS011;27576;53.366;-1.498;2023-07-13T03:39:46;6.22;;;3.83;;
41897;SDS011;27576;53.366;-1.498;2023-07-13T03:42:11;11.52;;;4.88;;
41897;SDS011;27576;53.366;-1.498;2023-07-13T03:44:38;9.98;;;4.65;;
41897;SDS011;27576;53.366;-1.498;2023-07-13T03:47:04;6.40;;;3.83;;
41897;SDS011;27576;53.366;-1.498;2023-07-13T03:49:31;8.75;;;4.43;;
41897;SDS011;27576;53.366;-1.498;2023-07-13T03:51:56;10.05;;;4.40;;
41897;SDS011;27576;53.366;-1.498;2023-07-13T03:54:22;6.20;;;4.03;;
41897;SDS011;27576;53.366;-1.498;2023-07-13T03:56:47;5.60;;;3.95;;
41897;SDS011;27576;53.366;-1.498;2023-07-13T03:59:12;7.93;;;3.40;;
41897;SDS011;27576;53.366;-1.498;2023-07-13T04:01:38;4.65;;;3.42;;
41897;SDS011;27576;53.366;-1.498;2023-07-13T04:04:04;6.13;;;3.72;;
41897;SDS011;27576;53.366;-1.498;2023-07-13T04:06:29;8.52;;;4.07;;
41897;SDS011;27576;53.366;-1.498;2023-07-13T04:08:56;11.98;;;4.13;;
41897;SDS011;27576;53.366;-1.498;2023-07-13T04:11:24;9.35;;;3.97;;
41897;SDS011;27576;53.366;-1.498;2023-07-13T04:13:52;3.78;;;3.40;;
41897;SDS011;27576;53.366;-1.498;2023-07-13T04:16:18;4.38;;;3.22;;
41897;SDS011;27576;53.366;-1.498;2023-07-13T04:18:44;4.10;;;3.70;;
41897;SDS011;27576;53.366;-1.498;2023-07-13T04:21:10;5.22;;;3.88;;
41897;SDS011;27576;53.366;-1.498;2023-07-13T04:23:36;6.28;;;3.30;;
41897;SDS011;27576;53.366;-1.498;2023-07-13T04:26:02;5.32;;;3.53;;
41897;SDS011;27576;53.366;-1.498;2023-07-13T04:28:28;4.25;;;3.75;;
41897;SDS011;27576;53.366;-1.498;2023-07-13T04:30:53;5.57;;;3.92;;
41897;SDS011;27576;53.366;-1.498;2023-07-13T04:33:19;6.65;;;4.85;;
41897;SDS011;27576;53.366;-1.498;2023-07-13T04:35:48;9.75;;;6.57;;
41897;SDS011;27576;53.366;-1.498;2023-07-13T04:38:14;8.70;;;6.38;;
41897;SDS011;27576;53.366;-1.498;2023-07-13T04:40:42;8.48;;;7.00;;
41897;SDS011;27576;53.366;-1.498;2023-07-13T04:43:10;9.27;;;6.45;;
41897;SDS011;27576;53.366;-1.498;2023-07-13T04:45:36;8.25;;;6.50;;
41897;SDS011;27576;53.366;-1.498;2023-07-13T04:48:01;9.70;;;6.18;;
41897;SDS011;27576;53.366;-1.498;2023-07-13T04:50:27;7.85;;;7.05;;
41897;SDS011;27576;53.366;-1.498;2023-07-13T04:52:52;10.73;;;8.80;;
41897;SDS011;27576;53.366;-1.498;2023-07-13T04:55:18;8.80;;;7.80;;
41897;SDS011;27576;53.366;-1.498;2023-07-13T04:57:45;11.50;;;8.02;;
41897;SDS011;27576;53.366;-1.498;2023-07-13T05:00:11;11.30;;;7.75;;
41897;SDS011;27576;53.366;-1.498;2023-07-13T05:02:37;7.60;;;6.78;;
41897;SDS011;27576;53.366;-1.498;2023-07-13T05:05:04;10.07;;;8.70;;
41897;SDS011;27576;53.366;-1.498;2023-07-13T05:07:30;8.52;;;7.60;;
41897;SDS011;27576;53.366;-1.498;2023-07-13T05:09:58;7.95;;;7.13;;
41897;SDS011;27576;53.366;-1.498;2023-07-13T05:12:24;7.68;;;6.90;;
41897;SDS011;27576;53.366;-1.498;2023-07-13T05:14:50;9.65;;;6.57;;
41897;SDS011;27576;53.366;-1.498;2023-07-13T05:17:15;9.48;;;6.80;;
41897;SDS011;27576;53.366;-1.498;2023-07-13T05:19:41;7.88;;;6.65;;
41897;SDS011;27576;53.366;-1.498;2023-07-13T05:22:06;7.10;;;6.40;;
41897;SDS011;27576;53.366;-1.498;2023-07-13T05:24:31;7.55;;;5.68;;
41897;SDS011;27576;53.366;-1.498;2023-07-13T05:26:57;8.05;;;6.05;;
41897;SDS011;27576;53.366;-1.498;2023-07-13T05:29:23;5.30;;;4.80;;
41897;SDS011;27576;53.366;-1.498;2023-07-13T05:31:48;5.97;;;5.07;;
41897;SDS011;27576;53.366;-1.498;2023-07-13T05:34:14;6.63;;;4.70;;
41897;SDS011;27576;53.366;-1.498;2023-07-13T05:36:40;6.13;;;5.28;;
41897;SDS011;27576;53.366;-1.498;2023-07-13T05:39:06;5.57;;;4.53;;
41897;SDS011;27576;53.366;-1.498;2023-07-13T05:41:31;5.20;;;4.80;;
41897;SDS011;27576;53.366;-1.498;2023-07-13T05:43:56;4.55;;;4.03;;
41897;SDS011;27576;53.366;-1.498;2023-07-13T05:46:22;7.90;;;4.70;;
41897;SDS011;27576;53.366;-1.498;2023-07-13T05:48:47;5.03;;;4.00;;
41897;SDS011;27576;53.366;-1.498;2023-07-13T05:51:13;5.10;;;4.65;;
41897;SDS011;27576;53.366;-1.498;2023-07-13T05:53:39;6.18;;;3.78;;
41897;SDS011;27576;53.366;-1.498;2023-07-13T05:56:04;4.15;;;3.72;;
41897;SDS011;27576;53.366;-1.498;2023-07-13T05:58:30;4.10;;;3.80;;
41897;SDS011;27576;53.366;-1.498;2023-07-13T06:01:07;5.03;;;4.05;;
41897;SDS011;27576;53.366;-1.498;2023-07-13T06:03:35;3.83;;;3.38;;
41897;SDS011;27576;53.366;-1.498;2023-07-13T06:06:03;3.95;;;3.22;;
41897;SDS011;27576;53.366;-1.498;2023-07-13T06:08:29;4.57;;;2.88;;
41897;SDS011;27576;53.366;-1.498;2023-07-13T06:10:55;3.97;;;2.70;;
41897;SDS011;27576;53.366;-1.498;2023-07-13T06:13:26;4.35;;;3.35;;
41897;SDS011;27576;53.366;-1.498;2023-07-13T06:15:52;3.28;;;2.92;;
41897;SDS011;27576;53.366;-1.498;2023-07-13T06:18:17;6.70;;;3.50;;
41897;SDS011;27576;53.366;-1.498;2023-07-13T06:20:43;5.35;;;3.20;;
41897;SDS011;27576;53.366;-1.498;2023-07-13T06:23:08;3.88;;;3.08;;
41897;SDS011;27576;53.366;-1.498;2023-07-13T06:25:34;5.30;;;3.28;;
41897;SDS011;27576;53.366;-1.498;2023-07-13T06:27:59;3.75;;;2.58;;
41897;SDS011;27576;53.366;-1.498;2023-07-13T06:30:25;3.67;;;2.90;;
41897;SDS011;27576;53.366;-1.498;2023-07-13T06:32:50;4.55;;;2.80;;
41897;SDS011;27576;53.366;-1.498;2023-07-13T06:35:16;4.38;;;2.45;;
41897;SDS011;27576;53.366;-1.498;2023-07-13T06:37:41;3.67;;;2.90;;
41897;SDS011;27576;53.366;-1.498;2023-07-13T06:40:07;5.22;;;3.58;;
41897;SDS011;27576;53.366;-1.498;2023-07-13T06:42:33;4.65;;;2.83;;
41897;SDS011;27576;53.366;-1.498;2023-07-13T06:44:58;3.15;;;2.88;;
41897;SDS011;27576;53.366;-1.498;2023-07-13T06:47:23;4.65;;;3.35;;
41897;SDS011;27576;53.366;-1.498;2023-07-13T06:49:49;5.82;;;3.03;;
41897;SDS011;27576;53.366;-1.498;2023-07-13T06:52:14;3.65;;;3.00;;
41897;SDS011;27576;53.366;-1.498;2023-07-13T06:54:39;4.10;;;2.65;;
41897;SDS011;27576;53.366;-1.498;2023-07-13T06:57:05;3.90;;;2.72;;
41897;SDS011;27576;53.366;-1.498;2023-07-13T06:59:30;3.25;;;2.63;;
41897;SDS011;27576;53.366;-1.498;2023-07-13T07:01:56;5.20;;;2.90;;
41897;SDS011;27576;53.366;-1.498;2023-07-13T07:04:21;3.92;;;3.30;;
41897;SDS011;27576;53.366;-1.498;2023-07-13T07:06:47;3.42;;;2.95;;
41897;SDS011;27576;53.366;-1.498;2023-07-13T07:09:12;6.50;;;3.25;;
41897;SDS011;27576;53.366;-1.498;2023-07-13T07:11:38;3.72;;;3.03;;
41897;SDS011;27576;53.366;-1.498;2023-07-13T07:14:04;4.90;;;3.42;;
41897;SDS011;27576;53.366;-1.498;2023-07-13T07:16:29;5.82;;;3.65;;
41897;SDS011;27576;53.366;-1.498;2023-07-13T07:18:55;3.83;;;3.40;;
41897;SDS011;27576;53.366;-1.498;2023-07-13T07:21:20;4.22;;;3.20;;
41897;SDS011;27576;53.366;-1.498;2023-07-13T07:23:48;5.00;;;3.08;;
41897;SDS011;27576;53.366;-1.498;2023-07-13T07:26:13;3.67;;;2.60;;
41897;SDS011;27576;53.366;-1.498;2023-07-13T07:28:38;5.80;;;2.72;;
41897;SDS011;27576;53.366;-1.498;2023-07-13T07:31:04;4.15;;;3.10;;
41897;SDS011;27576;53.366;-1.498;2023-07-13T07:33:29;4.72;;;2.90;;
41897;SDS011;27576;53.366;-1.498;2023-07-13T07:35:55;3.72;;;3.03;;
41897;SDS011;27576;53.366;-1.498;2023-07-13T07:38:20;3.17;;;2.88;;
41897;SDS011;27576;53.366;-1.498;2023-07-13T07:40:45;6.90;;;3.15;;
41897;SDS011;27576;53.366;-1.498;2023-07-13T07:43:11;2.90;;;2.58;;
41897;SDS011;27576;53.366;-1.498;2023-07-13T07:45:37;4.63;;;3.40;;
41897;SDS011;27576;53.366;-1.498;2023-07-13T07:48:04;3.30;;;3.00;;
41897;SDS011;27576;53.366;-1.498;2023-07-13T07:50:30;2.97;;;2.70;;
41897;SDS011;27576;53.366;-1.498;2023-07-13T07:52:56;3.03;;;2.72;;
41897;SDS011;27576;53.366;-1.498;2023-07-13T07:55:21;3.55;;;2.83;;
41897;SDS011;27576;53.366;-1.498;2023-07-13T07:57:47;2.55;;;2.35;;
41897;SDS011;27576;53.366;-1.498;2023-07-13T08:00:13;3.47;;;2.40;;
41897;SDS011;27576;53.366;-1.498;2023-07-13T08:02:39;3.35;;;2.30;;
41897;SDS011;27576;53.366;-1.498;2023-07-13T08:05:07;3.20;;;2.40;;
41897;SDS011;27576;53.366;-1.498;2023-07-13T08:07:33;3.42;;;2.25;;
41897;SDS011;27576;53.366;-1.498;2023-07-13T08:09:59;4.32;;;2.53;;
41897;SDS011;27576;53.366;-1.498;2023-07-13T08:12:24;2.72;;;2.15;;
41897;SDS011;27576;53.366;-1.498;2023-07-13T08:14:50;3.63;;;2.50;;
41897;SDS011;27576;53.366;-1.498;2023-07-13T08:17:21;4.47;;;2.47;;
41897;SDS011;27576;53.366;-1.498;2023-07-13T08:19:47;2.92;;;2.30;;
41897;SDS011;27576;53.366;-1.498;2023-07-13T08:22:12;4.18;;;2.75;;
41897;SDS011;27576;53.366;-1.498;2023-07-13T08:24:38;3.00;;;2.60;;
41897;SDS011;27576;53.366;-1.498;2023-07-13T08:27:03;4.60;;;2.30;;
41897;SDS011;27576;53.366;-1.498;2023-07-13T08:29:30;3.53;;;2.30;;
41897;SDS011;27576;53.366;-1.498;2023-07-13T08:31:58;2.53;;;2.30;;
41897;SDS011;27576;53.366;-1.498;2023-07-13T08:34:24;5.53;;;2.67;;
41897;SDS011;27576;53.366;-1.498;2023-07-13T08:36:49;2.10;;;1.80;;
41897;SDS011;27576;53.366;-1.498;2023-07-13T08:39:15;4.38;;;2.60;;
41897;SDS011;27576;53.366;-1.498;2023-07-13T08:41:40;5.68;;;2.72;;
41897;SDS011;27576;53.366;-1.498;2023-07-13T08:44:07;5.82;;;2.42;;
41897;SDS011;27576;53.366;-1.498;2023-07-13T08:46:44;2.90;;;2.13;;
41897;SDS011;27576;53.366;-1.498;2023-07-13T08:49:12;3.50;;;2.22;;
41897;SDS011;27576;53.366;-1.498;2023-07-13T08:51:48;2.30;;;1.80;;
41897;SDS011;27576;53.366;-1.498;2023-07-13T08:54:35;6.03;;;2.28;;
41897;SDS011;27576;53.366;-1.498;2023-07-13T08:57:10;3.42;;;1.60;;
41897;SDS011;27576;53.366;-1.498;2023-07-13T08:59:38;3.67;;;1.73;;
41897;SDS011;27576;53.366;-1.498;2023-07-13T09:02:20;3.63;;;1.70;;
41897;SDS011;27576;53.366;-1.498;2023-07-13T09:10:29;3.30;;;2.40;;
41897;SDS011;27576;53.366;-1.498;2023-07-13T09:15:41;3.15;;;2.05;;
41897;SDS011;27576;53.366;-1.498;2023-07-13T09:20:54;3.38;;;1.75;;
41897;SDS011;27576;53.366;-1.498;2023-07-13T09:23:24;2.55;;;1.63;;
41897;SDS011;27576;53.366;-1.498;2023-07-13T09:26:04;4.72;;;1.95;;
41897;SDS011;27576;53.366;-1.498;2023-07-13T09:28:38;4.55;;;1.70;;
41897;SDS011;27576;53.366;-1.498;2023-07-13T09:31:20;4.85;;;1.80;;
41897;SDS011;27576;53.366;-1.498;2023-07-13T09:33:59;2.90;;;2.05;;
41897;SDS011;27576;53.366;-1.498;2023-07-13T09:36:26;1.88;;;1.70;;
41897;SDS011;27576;53.366;-1.498;2023-07-13T09:38:59;3.95;;;2.25;;
41897;SDS011;27576;53.366;-1.498;2023-07-13T09:44:01;1.80;;;1.50;;
41897;SDS011;27576;53.366;-1.498;2023-07-13T09:46:26;2.60;;;1.80;;
41897;SDS011;27576;53.366;-1.498;2023-07-13T09:48:51;3.65;;;1.73;;
41897;SDS011;27576;53.366;-1.498;2023-07-13T09:51:17;2.35;;;1.38;;
41897;SDS011;27576;53.366;-1.498;2023-07-13T09:53:43;2.53;;;1.65;;
41897;SDS011;27576;53.366;-1.498;2023-07-13T09:56:21;3.58;;;1.77;;
41897;SDS011;27576;53.366;-1.498;2023-07-13T09:58:48;2.08;;;1.40;;
41897;SDS011;27576;53.366;-1.498;2023-07-13T10:01:14;2.90;;;1.55;;
41897;SDS011;27576;53.366;-1.498;2023-07-13T10:03:42;2.75;;;1.63;;
41897;SDS011;27576;53.366;-1.498;2023-07-13T10:06:19;2.60;;;1.60;;
41897;SDS011;27576;53.366;-1.498;2023-07-13T10:08:47;4.28;;;2.10;;
41897;SDS011;27576;53.366;-1.498;2023-07-13T10:11:22;12.23;;;3.03;;
41897;SDS011;27576;53.366;-1.498;2023-07-13T10:16:20;2.55;;;1.70;;
41897;SDS011;27576;53.366;-1.498;2023-07-13T10:18:58;2.40;;;1.88;;
41897;SDS011;27576;53.366;-1.498;2023-07-13T10:21:27;5.70;;;1.67;;
41897;SDS011;27576;53.366;-1.498;2023-07-13T10:24:02;2.90;;;1.70;;
41897;SDS011;27576;53.366;-1.498;2023-07-13T10:26:45;4.78;;;1.80;;
41897;SDS011;27576;53.366;-1.498;2023-07-13T10:29:14;2.35;;;1.60;;
41897;SDS011;27576;53.366;-1.498;2023-07-13T10:31:41;2.15;;;1.60;;
41897;SDS011;27576;53.366;-1.498;2023-07-13T10:34:10;6.05;;;2.28;;
41897;SDS011;27576;53.366;-1.498;2023-07-13T10:36:42;3.38;;;2.30;;
41897;SDS011;27576;53.366;-1.498;2023-07-13T10:39:19;3.95;;;2.03;;
41897;SDS011;27576;53.366;-1.498;2023-07-13T10:41:52;4.45;;;2.10;;
41897;SDS011;27576;53.366;-1.498;2023-07-13T10:44:27;2.83;;;2.03;;
41897;SDS011;27576;53.366;-1.498;2023-07-13T10:47:02;2.47;;;1.98;;
41897;SDS011;27576;53.366;-1.498;2023-07-13T10:49:33;3.15;;;1.75;;
41897;SDS011;27576;53.366;-1.498;2023-07-13T10:52:01;3.05;;;1.70;;
41897;SDS011;27576;53.366;-1.498;2023-07-13T10:54:31;3.70;;;2.10;;
41897;SDS011;27576;53.366;-1.498;2023-07-13T10:59:46;4.40;;;1.77;;
41897;SDS011;27576;53.366;-1.498;2023-07-13T11:02:21;2.03;;;1.50;;
41897;SDS011;27576;53.366;-1.498;2023-07-13T11:04:51;4.82;;;1.70;;
41897;SDS011;27576;53.366;-1.498;2023-07-13T11:07:20;5.20;;;1.40;;
41897;SDS011;27576;53.366;-1.498;2023-07-13T11:09:54;1.90;;;1.38;;
41897;SDS011;27576;53.366;-1.498;2023-07-13T11:19:53;4.57;;;1.98;;
41897;SDS011;27576;53.366;-1.498;2023-07-13T11:22:23;4.45;;;1.35;;
41897;SDS011;27576;53.366;-1.498;2023-07-13T11:24:57;1.50;;;1.30;;
41897;SDS011;27576;53.366;-1.498;2023-07-13T11:27:35;1.83;;;1.65;;
41897;SDS011;27576;53.366;-1.498;2023-07-13T11:30:24;3.33;;;1.35;;
41897;SDS011;27576;53.366;-1.498;2023-07-13T11:36:12;1.88;;;1.50;;
41897;SDS011;27576;53.366;-1.498;2023-07-13T11:38:51;2.55;;;1.48;;
41897;SDS011;27576;53.366;-1.498;2023-07-13T11:41:26;3.63;;;1.42;;
41897;SDS011;27576;53.366;-1.498;2023-07-13T11:44:08;2.55;;;1.33;;
41897;SDS011;27576;53.366;-1.498;2023-07-13T11:46:44;5.82;;;1.50;;
41897;SDS011;27576;53.366;-1.498;2023-07-13T11:49:17;2.97;;;1.50;;
41897;SDS011;27576;53.366;-1.498;2023-07-13T11:51:45;3.72;;;1.38;;
41897;SDS011;27576;53.366;-1.498;2023-07-13T11:54:18;1.35;;;1.20;;
41897;SDS011;27576;53.366;-1.498;2023-07-13T11:56:48;2.03;;;1.55;;
41897;SDS011;27576;53.366;-1.498;2023-07-13T11:59:14;2.88;;;1.33;;
41897;SDS011;27576;53.366;-1.498;2023-07-13T12:01:44;3.50;;;1.50;;
41897;SDS011;27576;53.366;-1.498;2023-07-13T12:04:47;2.83;;;1.38;;
41897;SDS011;27576;53.366;-1.498;2023-07-13T12:07:08;2.15;;;1.33;;
41897;SDS011;27576;53.366;-1.498;2023-07-13T12:09:41;1.80;;;1.33;;
41897;SDS011;27576;53.366;-1.498;2023-07-13T12:12:11;3.75;;;1.58;;
41897;SDS011;27576;53.366;-1.498;2023-07-13T12:14:38;2.38;;;1.55;;
41897;SDS011;27576;53.366;-1.498;2023-07-13T12:17:07;3.00;;;1.38;;
41897;SDS011;27576;53.366;-1.498;2023-07-13T12:19:38;2.33;;;0.90;;
41897;SDS011;27576;53.366;-1.498;2023-07-13T12:22:04;4.03;;;1.85;;
41897;SDS011;27576;53.366;-1.498;2023-07-13T12:24:29;2.85;;;1.50;;
41897;SDS011;27576;53.366;-1.498;2023-07-13T12:26:59;1.55;;;1.30;;
41897;SDS011;27576;53.366;-1.498;2023-07-13T12:29:27;4.45;;;1.50;;
41897;SDS011;27576;53.366;-1.498;2023-07-13T12:31:53;2.50;;;1.25;;
41897;SDS011;27576;53.366;-1.498;2023-07-13T12:34:20;3.35;;;1.23;;
41897;SDS011;27576;53.366;-1.498;2023-07-13T12:36:48;5.13;;;1.40;;
41897;SDS011;27576;53.366;-1.498;2023-07-13T12:39:19;3.38;;;1.55;;
41897;SDS011;27576;53.366;-1.498;2023-07-13T12:41:48;4.60;;;1.35;;
41897;SDS011;27576;53.366;-1.498;2023-07-13T12:44:17;3.47;;;1.27;;
41897;SDS011;27576;53.366;-1.498;2023-07-13T12:46:58;3.13;;;1.65;;
41897;SDS011;27576;53.366;-1.498;2023-07-13T12:49:39;2.90;;;1.70;;
41897;SDS011;27576;53.366;-1.498;2023-07-13T12:52:14;2.15;;;1.50;;
41897;SDS011;27576;53.366;-1.498;2023-07-13T12:54:41;3.17;;;1.13;;
41897;SDS011;27576;53.366;-1.498;2023-07-13T12:57:08;2.72;;;1.48;;
41897;SDS011;27576;53.366;-1.498;2023-07-13T12:59:41;9.55;;;1.70;;
41897;SDS011;27576;53.366;-1.498;2023-07-13T13:02:21;2.10;;;1.42;;
41897;SDS011;27576;53.366;-1.498;2023-07-13T13:04:52;6.05;;;1.60;;
41897;SDS011;27576;53.366;-1.498;2023-07-13T13:07:20;5.38;;;1.40;;
41897;SDS011;27576;53.366;-1.498;2023-07-13T13:09:45;2.13;;;1.20;;
41897;SDS011;27576;53.366;-1.498;2023-07-13T13:12:12;1.85;;;1.40;;
41897;SDS011;27576;53.366;-1.498;2023-07-13T13:14:37;2.03;;;1.42;;
41897;SDS011;27576;53.366;-1.498;2023-07-13T13:17:04;2.15;;;1.27;;
41897;SDS011;27576;53.366;-1.498;2023-07-13T13:19:56;1.83;;;1.40;;
41897;SDS011;27576;53.366;-1.498;2023-07-13T13:22:22;6.43;;;2.00;;
41897;SDS011;27576;53.366;-1.498;2023-07-13T13:24:47;1.95;;;1.33;;
41897;SDS011;27576;53.366;-1.498;2023-07-13T13:27:17;2.22;;;1.58;;
41897;SDS011;27576;53.366;-1.498;2023-07-13T13:29:45;4.15;;;1.50;;
41897;SDS011;27576;53.366;-1.498;2023-07-13T13:32:12;3.60;;;1.80;;
41897;SDS011;27576;53.366;-1.498;2023-07-13T13:34:38;2.08;;;1.70;;
41897;SDS011;27576;53.366;-1.498;2023-07-13T13:37:04;3.55;;;1.60;;
41897;SDS011;27576;53.366;-1.498;2023-07-13T13:39:48;2.90;;;1.60;;
41897;SDS011;27576;53.366;-1.498;2023-07-13T13:42:15;2.47;;;1.58;;
41897;SDS011;27576;53.366;-1.498;2023-07-13T13:44:40;2.28;;;1.42;;
41897;SDS011;27576;53.366;-1.498;2023-07-13T13:47:24;3.05;;;1.73;;
41897;SDS011;27576;53.366;-1.498;2023-07-13T13:49:55;2.58;;;1.45;;
41897;SDS011;27576;53.366;-1.498;2023-07-13T13:52:21;5.35;;;1.50;;
41897;SDS011;27576;53.366;-1.498;2023-07-13T13:54:46;2.15;;;1.60;;
41897;SDS011;27576;53.366;-1.498;2023-07-13T13:57:12;2.10;;;1.50;;
41897;SDS011;27576;53.366;-1.498;2023-07-13T13:59:37;3.15;;;1.65;;
41897;SDS011;27576;53.366;-1.498;2023-07-13T14:02:11;6.30;;;1.70;;
41897;SDS011;27576;53.366;-1.498;2023-07-13T14:04:50;2.00;;;1.58;;
41897;SDS011;27576;53.366;-1.498;2023-07-13T14:07:20;2.53;;;1.88;;
41897;SDS011;27576;53.366;-1.498;2023-07-13T14:09:45;2.95;;;1.90;;
41897;SDS011;27576;53.366;-1.498;2023-07-13T14:12:10;1.83;;;1.40;;
41897;SDS011;27576;53.366;-1.498;2023-07-13T14:14:37;2.03;;;1.40;;
41897;SDS011;27576;53.366;-1.498;2023-07-13T14:17:03;1.95;;;1.65;;
41897;SDS011;27576;53.366;-1.498;2023-07-13T14:19:29;2.03;;;1.40;;
41897;SDS011;27576;53.366;-1.498;2023-07-13T14:21:55;1.85;;;1.55;;
41897;SDS011;27576;53.366;-1.498;2023-07-13T14:24:20;4.88;;;1.60;;
41897;SDS011;27576;53.366;-1.498;2023-07-13T14:26:46;2.97;;;1.38;;
41897;SDS011;27576;53.366;-1.498;2023-07-13T14:29:16;1.75;;;1.40;;
41897;SDS011;27576;53.366;-1.498;2023-07-13T14:31:43;3.40;;;1.67;;
41897;SDS011;27576;53.366;-1.498;2023-07-13T14:34:12;4.43;;;1.50;;
41897;SDS011;27576;53.366;-1.498;2023-07-13T14:36:41;1.65;;;1.55;;
41897;SDS011;27576;53.366;-1.498;2023-07-13T14:39:16;2.20;;;1.67;;
41897;SDS011;27576;53.366;-1.498;2023-07-13T14:41:44;2.60;;;1.70;;
41897;SDS011;27576;53.366;-1.498;2023-07-13T14:44:13;1.70;;;1.40;;
41897;SDS011;27576;53.366;-1.498;2023-07-13T14:46:40;2.65;;;1.98;;
41897;SDS011;27576;53.366;-1.498;2023-07-13T14:51:58;2.60;;;1.52;;
41897;SDS011;27576;53.366;-1.498;2023-07-13T14:54:25;3.78;;;1.70;;
41897;SDS011;27576;53.366;-1.498;2023-07-13T14:56:51;3.00;;;1.85;;
41897;SDS011;27576;53.366;-1.498;2023-07-13T14:59:17;4.10;;;1.88;;
41897;SDS011;27576;53.366;-1.498;2023-07-13T15:01:45;2.30;;;2.00;;
41897;SDS011;27576;53.366;-1.498;2023-07-13T15:04:11;15.30;;;2.83;;
41897;SDS011;27576;53.366;-1.498;2023-07-13T15:06:54;2.85;;;1.83;;
41897;SDS011;27576;53.366;-1.498;2023-07-13T15:09:19;2.08;;;1.55;;
41897;SDS011;27576;53.366;-1.498;2023-07-13T15:11:45;4.15;;;1.70;;
41897;SDS011;27576;53.366;-1.498;2023-07-13T15:14:10;28.52;;;3.67;;
41897;SDS011;27576;53.366;-1.498;2023-07-13T15:16:35;6.45;;;1.90;;